Jose Maria Córdova International Airport
SKRG : now visible

Airfield :











YOU CAN JOIN US ON...

 
LOGIN :

Register | Disclaimer

   EN    FR    IT 

 









Legend :    VFR   Marginal VFR   IFR   Intensive IFR   Very Intensive IFR
Visi :
Ceiling :
>= 8 km
>= 3000ft
5 to 8 km
1000 to 3000 ft
1500m to 5 km
500 to 1000 ft
800 to 1500m
200 to 500 ft
< 800m
< 200 ft
Symbols :   Thunderstorms  Fog  Heavy snow  Heavy precipitations  Wind > 20 kt






- Airport Elevation : 6955 ft
- IATA code : MDE


SKRG - Jose Maria Córdova International

CURRENT METAR :
  • 230300Z VRB02KT 9999 SCT015 16/14 Q1026 NOSIG

EXPIRED METARs :
  • 230200Z VRB02KT 9999 SCT015 17/15 Q1025 NOSIG
  • 230100Z VRB02KT 9999 SCT015 18/14 Q1025 NOSIG
  • 230000Z 11005KT 020V160 9999 SCT017 20/13 Q1023 NOSIG
  • 222300Z 12008KT 9999 FEW020 21/13 Q1023 NOSIG
  • 222200Z 10009KT 020V190 9999 SCT020 23/12 Q1022 NOSIG

TAF TAF SKRG
Valid from the 23 at 00:00 until the 24 at 00:00 UTC


222235Z 2300/2324 VRB02KT 9999 SCT020
BECMG 2313/2315 11010KT
TEMPO 2320/2323 SCT020TCU TX25/2319Z TN12/2311Z
SKED FIR / South America



MET'MAP, your aeronautical weather chart ! - Copyright ORBIFLY December 2007 - Disclaimer

ORBIFLY MET'MAP TEAM :

Programming & Development : Alexandra Zaïnal
Original concept : Baudouin d'Aumeries
Technical & hardware support : Manuel Goepfert
Assistance : Marc-Olivier Méhu




SOURCES & CREDITS :

   NOAA       Earth
Advisory